Time;durP1;ratioP1;P1;durP2;ratioP2;P2;SDS_P1;SDS_P2;PMS_P1;PMS_P2;Temp;Humidity;BMP_temperature;BMP_pressure;BME280_temperature;BME280_humidity;BME280_pressure;Samples;Min_cycle;Max_cycle;Signal;HPM_P1;HPM_P2
2021/07/15 00:02:05;;;;;;;2.95;1.67;;;;;;;;;;5013521;28;20025;-81
2021/07/15 00:04:30;;;;;;;5.22;1.60;;;;;;;;;;4996472;28;20030;-81
2021/07/15 00:06:58;;;;;;;2.25;1.40;;;;;;;;;;5008324;28;20182;-81
2021/07/15 00:09:25;;;;;;;3.95;1.80;;;;;;;;;;4994077;28;20124;-81
2021/07/15 00:11:50;;;;;;;1.85;1.58;;;;;;;;;;4994230;28;20019;-81
2021/07/15 00:14:19;;;;;;;3.80;1.48;;;;;;;;;;4994316;28;20358;-81
2021/07/15 00:16:47;;;;;;;2.75;1.90;;;;;;;;;;5003055;28;20069;-81
2021/07/15 00:19:15;;;;;;;5.10;1.58;;;;;;;;;;5027425;28;20100;-81
2021/07/15 00:21:40;;;;;;;3.00;1.83;;;;;;;;;;5020733;28;20126;-81
2021/07/15 00:24:05;;;;;;;3.80;1.80;;;;;;;;;;4993911;28;20538;-81
2021/07/15 00:26:31;;;;;;;2.33;1.52;;;;;;;;;;4997227;28;20023;-81
2021/07/15 00:28:56;;;;;;;2.28;1.63;;;;;;;;;;5011246;28;20105;-81
2021/07/15 00:31:21;;;;;;;3.40;1.73;;;;;;;;;;5003065;28;20026;-81
2021/07/15 00:33:47;;;;;;;1.98;1.88;;;;;;;;;;5001111;28;20335;-81
2021/07/15 00:36:17;;;;;;;4.25;1.70;;;;;;;;;;5002005;28;20025;-81
2021/07/15 00:38:45;;;;;;;2.65;2.15;;;;;;;;;;5000827;28;20026;-81
2021/07/15 00:41:10;;;;;;;2.80;1.73;;;;;;;;;;5004273;28;20447;-81
2021/07/15 00:43:35;;;;;;;4.07;1.77;;;;;;;;;;5014796;28;20018;-81
2021/07/15 00:46:00;;;;;;;1.88;1.70;;;;;;;;;;5002743;28;20026;-81
2021/07/15 00:48:26;;;;;;;4.75;2.10;;;;;;;;;;5000000;28;20033;-81
2021/07/15 00:50:51;;;;;;;2.72;1.88;;;;;;;;;;5003182;28;20026;-81
2021/07/15 00:53:17;;;;;;;4.75;2.75;;;;;;;;;;4996999;28;20109;-81
2021/07/15 00:55:43;;;;;;;4.93;2.20;;;;;;;;;;5011570;28;20022;-81
2021/07/15 00:58:12;;;;;;;2.90;2.60;;;;;;;;;;4994075;28;20086;-81
2021/07/15 01:00:41;;;;;;;2.83;2.35;;;;;;;;;;4975639;28;20026;-81
2021/07/15 01:03:09;;;;;;;2.50;2.10;;;;;;;;;;4993283;28;20034;-81
2021/07/15 01:05:38;;;;;;;4.25;2.15;;;;;;;;;;4993389;28;20451;-81
2021/07/15 01:08:07;;;;;;;3.00;2.50;;;;;;;;;;4993904;28;20023;-81
2021/07/15 01:10:41;;;;;;;2.97;2.53;;;;;;;;;;5007301;28;20168;-81
2021/07/15 01:13:19;;;;;;;3.92;2.63;;;;;;;;;;5016854;28;20395;-81
2021/07/15 01:15:49;;;;;;;5.82;2.60;;;;;;;;;;5016866;28;20056;-81
2021/07/15 01:18:29;;;;;;;3.78;2.50;;;;;;;;;;5016099;28;20033;-81
2021/07/15 01:21:20;;;;;;;2.63;2.42;;;;;;;;;;5010046;28;20022;-80
2021/07/15 01:24:05;;;;;;;4.43;2.50;;;;;;;;;;4962953;28;20030;-80
2021/07/15 01:26:30;;;;;;;4.07;2.40;;;;;;;;;;5014980;28;20022;-80
2021/07/15 01:29:01;;;;;;;2.33;2.00;;;;;;;;;;4998944;28;20485;-81
2021/07/15 01:31:28;;;;;;;4.18;2.67;;;;;;;;;;4996723;28;20336;-80
2021/07/15 01:33:53;;;;;;;5.40;3.22;;;;;;;;;;4997224;28;20061;-81
2021/07/15 01:36:19;;;;;;;3.38;2.40;;;;;;;;;;4979726;28;20555;-81
2021/07/15 01:38:55;;;;;;;2.53;2.33;;;;;;;;;;4979820;28;20093;-81
2021/07/15 01:41:23;;;;;;;3.47;2.53;;;;;;;;;;4996733;28;20022;-81
2021/07/15 01:43:51;;;;;;;4.95;3.25;;;;;;;;;;4996856;28;20030;-81
2021/07/15 01:46:16;;;;;;;4.60;3.55;;;;;;;;;;5009163;28;20025;-80
2021/07/15 01:48:42;;;;;;;3.97;2.33;;;;;;;;;;4998559;28;20033;-80
2021/07/15 01:51:07;;;;;;;5.82;2.65;;;;;;;;;;5015138;28;20018;-80
2021/07/15 01:53:35;;;;;;;5.50;3.35;;;;;;;;;;5015843;28;20054;-80
2021/07/15 01:56:01;;;;;;;3.20;3.00;;;;;;;;;;5015119;28;20010;-80
2021/07/15 01:58:30;;;;;;;3.35;3.05;;;;;;;;;;5015837;28;20022;-80
2021/07/15 02:00:57;;;;;;;3.60;3.30;;;;;;;;;;5015932;28;20022;-80
2021/07/15 02:03:24;;;;;;;5.10;3.65;;;;;;;;;;5016104;28;20018;-80
2021/07/15 02:05:50;;;;;;;3.83;3.25;;;;;;;;;;5006035;28;20033;-81
2021/07/15 02:08:18;;;;;;;7.32;3.72;;;;;;;;;;4996217;28;20032;-81
2021/07/15 02:10:43;;;;;;;3.88;3.58;;;;;;;;;;4996278;28;20026;-81
2021/07/15 02:13:11;;;;;;;5.22;3.15;;;;;;;;;;4996258;28;20018;-81
2021/07/15 02:15:38;;;;;;;3.80;3.42;;;;;;;;;;4995621;28;20026;-81
2021/07/15 02:18:11;;;;;;;4.03;3.65;;;;;;;;;;4995859;28;20052;-80
2021/07/15 02:20:36;;;;;;;6.63;4.10;;;;;;;;;;4996404;28;20050;-81
2021/07/15 02:23:02;;;;;;;4.38;3.97;;;;;;;;;;5000480;28;20050;-81
2021/07/15 02:25:27;;;;;;;3.35;3.13;;;;;;;;;;4995591;28;20073;-81
2021/07/15 02:27:56;;;;;;;4.05;3.45;;;;;;;;;;4978435;28;20494;-80
2021/07/15 02:30:21;;;;;;;3.83;3.50;;;;;;;;;;4995268;28;20018;-80
2021/07/15 02:32:56;;;;;;;3.70;3.40;;;;;;;;;;4995719;28;20018;-80
2021/07/15 02:35:26;;;;;;;3.55;3.20;;;;;;;;;;4995843;28;20022;-81
2021/07/15 02:37:56;;;;;;;3.35;3.03;;;;;;;;;;5004018;28;20025;-81
2021/07/15 02:40:21;;;;;;;4.85;3.38;;;;;;;;;;4997737;28;20397;-81
2021/07/15 02:42:47;;;;;;;4.45;3.17;;;;;;;;;;5015011;28;20030;-81
2021/07/15 02:45:14;;;;;;;5.18;4.07;;;;;;;;;;4998125;28;20030;-80
2021/07/15 02:47:40;;;;;;;4.55;4.00;;;;;;;;;;5013997;28;20104;-81
2021/07/15 02:50:06;;;;;;;5.97;3.58;;;;;;;;;;5014751;28;20022;-80
2021/07/15 02:52:32;;;;;;;4.55;3.55;;;;;;;;;;5014827;28;20060;-80
2021/07/15 02:54:57;;;;;;;4.07;3.67;;;;;;;;;;5014182;28;20029;-81
2021/07/15 02:57:29;;;;;;;3.63;3.33;;;;;;;;;;5014806;28;20029;-81
2021/07/15 03:00:04;;;;;;;4.75;3.85;;;;;;;;;;5014308;28;20022;-81
2021/07/15 03:02:30;;;;;;;;;;;;;;;;;;5015098;28;20100;-81
2021/07/15 03:05:05;;;;;;;4.15;3.75;;;;;;;;;;5008778;28;19957;-80
2021/07/15 03:07:32;;;;;;;5.20;3.65;;;;;;;;;;5009764;28;20013;-80
2021/07/15 03:09:57;;;;;;;3.72;3.42;;;;;;;;;;5008435;28;20025;-80
2021/07/15 03:12:26;;;;;;;5.13;3.97;;;;;;;;;;5006007;28;21229;-80
2021/07/15 03:14:54;;;;;;;4.47;4.07;;;;;;;;;;5008808;28;20014;-80
2021/07/15 03:17:24;;;;;;;5.82;4.40;;;;;;;;;;5003229;28;20661;-80
2021/07/15 03:19:53;;;;;;;5.10;4.70;;;;;;;;;;5010672;28;20014;-80
2021/07/15 03:22:22;;;;;;;4.60;4.20;;;;;;;;;;5010923;28;20025;-80
2021/07/15 03:24:54;;;;;;;4.10;3.80;;;;;;;;;;5013808;28;20489;-81
2021/07/15 03:27:20;;;;;;;4.50;4.20;;;;;;;;;;5002792;28;20109;-80
2021/07/15 03:29:46;;;;;;;4.95;4.50;;;;;;;;;;4994418;28;20022;-80
2021/07/15 03:32:13;;;;;;;5.47;5.07;;;;;;;;;;4997906;28;20390;-81
2021/07/15 03:34:38;;;;;;;5.13;4.63;;;;;;;;;;4994371;28;20018;-81
2021/07/15 03:37:04;;;;;;;6.70;5.72;;;;;;;;;;5004689;28;20088;-77
2021/07/15 03:39:29;;;;;;;9.45;5.80;;;;;;;;;;5014301;28;20029;-79
2021/07/15 03:41:54;;;;;;;6.47;5.88;;;;;;;;;;5014370;28;20018;-80
2021/07/15 03:44:20;;;;;;;6.05;5.55;;;;;;;;;;5002914;28;20034;-80
2021/07/15 03:46:46;;;;;;;6.10;5.50;;;;;;;;;;5010883;28;20037;-80
2021/07/15 03:49:22;;;;;;;5.72;5.18;;;;;;;;;;5024761;28;20354;-80
2021/07/15 03:51:48;;;;;;;;;;;;;;;;;;5013894;28;20552;-80
2021/07/15 03:54:13;;;;;;;4.90;4.32;;;;;;;;;;5003592;28;20384;-80
2021/07/15 03:56:41;;;;;;;5.55;5.05;;;;;;;;;;4994266;28;20109;-80
2021/07/15 03:59:06;;;;;;;5.35;4.55;;;;;;;;;;4994195;28;20105;-80
2021/07/15 04:01:32;;;;;;;4.43;4.03;;;;;;;;;;4977043;28;20499;-80
2021/07/15 04:04:00;;;;;;;4.72;4.20;;;;;;;;;;4983273;28;20276;-80
2021/07/15 04:06:27;;;;;;;4.88;3.83;;;;;;;;;;5010194;28;20031;-82
2021/07/15 04:08:55;;;;;;;6.07;4.78;;;;;;;;;;5009862;28;20046;-82
2021/07/15 04:11:26;;;;;;;4.55;4.15;;;;;;;;;;5010018;28;20026;-82
2021/07/15 04:13:52;;;;;;;5.15;4.65;;;;;;;;;;5010970;28;20014;-75
2021/07/15 04:16:31;;;;;;;6.20;5.03;;;;;;;;;;5009415;28;20633;-82
2021/07/15 04:18:59;;;;;;;5.65;4.75;;;;;;;;;;4998876;28;20014;-83
2021/07/15 04:21:24;;;;;;;6.07;5.30;;;;;;;;;;5011718;28;20087;-83
2021/07/15 04:23:51;;;;;;;4.70;4.20;;;;;;;;;;5003466;28;20023;-83
2021/07/15 04:26:19;;;;;;;6.22;5.60;;;;;;;;;;5002025;28;20463;-83
2021/07/15 04:28:47;;;;;;;5.60;5.15;;;;;;;;;;4999278;28;20034;-78
2021/07/15 04:31:12;;;;;;;6.13;5.63;;;;;;;;;;5003808;28;20502;-79
2021/07/15 04:33:38;;;;;;;5.83;4.90;;;;;;;;;;5003594;28;20110;-83
2021/07/15 04:36:07;;;;;;;5.55;5.13;;;;;;;;;;5000339;28;20261;-81
2021/07/15 04:38:35;;;;;;;5.88;5.38;;;;;;;;;;4982827;28;20042;-81
2021/07/15 04:41:02;;;;;;;6.72;6.10;;;;;;;;;;4999737;28;20474;-81
2021/07/15 04:43:28;;;;;;;6.40;5.80;;;;;;;;;;4999571;28;20048;-81
2021/07/15 04:45:55;;;;;;;8.38;6.68;;;;;;;;;;4989750;28;20054;-78
2021/07/15 04:48:20;;;;;;;6.63;5.43;;;;;;;;;;5015343;28;20113;-82
2021/07/15 04:50:47;;;;;;;5.63;5.13;;;;;;;;;;5009944;28;20112;-81
2021/07/15 04:53:19;;;;;;;8.73;5.30;;;;;;;;;;5001839;28;20049;-81
2021/07/15 04:55:45;;;;;;;6.85;5.95;;;;;;;;;;5008265;28;20494;-82
2021/07/15 04:58:11;;;;;;;5.93;5.43;;;;;;;;;;5007621;28;20564;-81
2021/07/15 05:00:37;;;;;;;7.07;6.25;;;;;;;;;;5010725;28;20442;-80
2021/07/15 05:03:11;;;;;;;7.75;6.75;;;;;;;;;;4989171;28;20018;-81
2021/07/15 05:05:36;;;;;;;8.25;7.00;;;;;;;;;;5006535;28;20466;-81
2021/07/15 05:08:01;;;;;;;8.50;7.22;;;;;;;;;;5006262;28;20041;-81
2021/07/15 05:10:29;;;;;;;7.82;7.10;;;;;;;;;;5010337;28;20017;-79
2021/07/15 05:12:56;;;;;;;8.25;7.45;;;;;;;;;;5006724;28;20451;-81
2021/07/15 05:15:21;;;;;;;8.40;7.60;;;;;;;;;;5012884;28;20053;-81
2021/07/15 05:17:47;;;;;;;7.65;7.05;;;;;;;;;;4996799;28;20451;-81
2021/07/15 05:20:12;;;;;;;8.40;7.43;;;;;;;;;;5003896;28;20355;-81
2021/07/15 05:22:38;;;;;;;6.53;5.80;;;;;;;;;;5008379;28;20098;-81
2021/07/15 05:25:04;;;;;;;7.45;6.75;;;;;;;;;;4999886;28;20034;-81
2021/07/15 05:27:30;;;;;;;6.78;6.07;;;;;;;;;;5001414;28;20114;-81
2021/07/15 05:29:56;;;;;;;7.10;6.28;;;;;;;;;;4998789;28;20044;-81
2021/07/15 05:32:24;;;;;;;7.15;6.47;;;;;;;;;;5002927;28;20112;-81
2021/07/15 05:34:49;;;;;;;7.00;6.40;;;;;;;;;;5010397;28;20053;-81
2021/07/15 05:37:14;;;;;;;9.38;6.28;;;;;;;;;;5002737;28;20050;-81
2021/07/15 05:39:43;;;;;;;7.18;6.47;;;;;;;;;;5026572;28;20027;-80
2021/07/15 05:42:11;;;;;;;8.27;6.88;;;;;;;;;;5002180;28;20048;-81
2021/07/15 05:44:39;;;;;;;7.72;6.60;;;;;;;;;;5006835;28;20025;-81
2021/07/15 05:47:07;;;;;;;7.50;6.80;;;;;;;;;;5012141;28;20347;-81
2021/07/15 05:49:32;;;;;;;7.35;6.60;;;;;;;;;;4997652;28;20053;-80
2021/07/15 05:51:58;;;;;;;7.40;6.70;;;;;;;;;;5004993;28;20053;-81
2021/07/15 05:54:25;;;;;;;7.03;6.40;;;;;;;;;;5012246;28;20455;-80
2021/07/15 05:56:53;;;;;;;9.63;6.55;;;;;;;;;;4998692;28;20257;-80
2021/07/15 05:59:18;;;;;;;7.32;6.63;;;;;;;;;;5002374;28;20034;-81
2021/07/15 06:01:43;;;;;;;8.10;6.67;;;;;;;;;;4999754;28;20010;-80
2021/07/15 06:04:09;;;;;;;6.73;6.17;;;;;;;;;;5005368;28;20257;-80
2021/07/15 06:06:34;;;;;;;7.33;6.73;;;;;;;;;;5003388;28;20277;-80
2021/07/15 06:09:08;;;;;;;6.65;6.07;;;;;;;;;;4998770;28;20253;-80
2021/07/15 06:11:35;;;;;;;5.68;5.18;;;;;;;;;;4999754;28;20022;-80
2021/07/15 06:14:03;;;;;;;6.03;5.47;;;;;;;;;;5004670;28;20126;-81
2021/07/15 06:16:28;;;;;;;5.32;4.93;;;;;;;;;;5001156;28;20026;-80
2021/07/15 06:18:53;;;;;;;4.82;4.43;;;;;;;;;;5004985;28;20022;-80
2021/07/15 06:21:20;;;;;;;6.07;5.47;;;;;;;;;;5005028;28;20026;-80
2021/07/15 06:23:46;;;;;;;5.70;5.25;;;;;;;;;;5008435;28;20446;-81
2021/07/15 06:26:11;;;;;;;6.18;5.57;;;;;;;;;;4998230;28;20073;-81
2021/07/15 06:28:39;;;;;;;6.20;4.47;;;;;;;;;;4998879;28;20108;-81
2021/07/15 06:31:04;;;;;;;6.47;5.13;;;;;;;;;;4998088;28;20081;-81
2021/07/15 06:33:30;;;;;;;5.00;4.47;;;;;;;;;;5002051;28;20498;-82
2021/07/15 06:35:55;;;;;;;5.32;4.75;;;;;;;;;;4984104;28;20022;-82
2021/07/15 06:38:23;;;;;;;5.30;4.47;;;;;;;;;;5000848;28;20084;-82
2021/07/15 06:40:51;;;;;;;5.40;4.75;;;;;;;;;;4998934;28;20026;-82
2021/07/15 06:43:19;;;;;;;6.18;4.00;;;;;;;;;;4995820;28;20081;-82
2021/07/15 06:45:44;;;;;;;5.50;4.97;;;;;;;;;;5000029;28;20362;-81
2021/07/15 06:48:09;;;;;;;4.23;3.83;;;;;;;;;;5003105;28;20085;-83
2021/07/15 06:50:34;;;;;;;4.70;4.30;;;;;;;;;;5002641;28;20296;-83
2021/07/15 06:53:02;;;;;;;4.53;3.80;;;;;;;;;;4997809;28;20472;-83
2021/07/15 06:55:30;;;;;;;3.97;3.67;;;;;;;;;;4999221;28;20254;-83
2021/07/15 06:57:55;;;;;;;4.53;3.83;;;;;;;;;;4982911;28;20101;-83
2021/07/15 07:00:23;;;;;;;4.60;4.20;;;;;;;;;;5005178;28;20114;-83
2021/07/15 07:02:48;;;;;;;4.88;4.30;;;;;;;;;;5003726;28;20018;-83
2021/07/15 07:05:16;;;;;;;4.78;4.38;;;;;;;;;;5001613;28;20517;-83
2021/07/15 07:07:43;;;;;;;4.53;4.15;;;;;;;;;;4997787;28;20026;-82
2021/07/15 07:10:11;;;;;;;4.82;4.10;;;;;;;;;;5000220;28;20026;-83
2021/07/15 07:12:36;;;;;;;4.30;3.90;;;;;;;;;;5003629;28;20018;-83
2021/07/15 07:15:02;;;;;;;4.20;3.30;;;;;;;;;;4996778;28;20084;-82
2021/07/15 07:17:28;;;;;;;4.63;4.22;;;;;;;;;;5000366;28;20029;-84
2021/07/15 07:19:53;;;;;;;4.25;3.92;;;;;;;;;;4994741;28;20022;-83
2021/07/15 07:22:18;;;;;;;4.30;3.63;;;;;;;;;;5000703;28;20038;-84
2021/07/15 07:24:47;;;;;;;4.17;3.30;;;;;;;;;;5006438;28;20581;-83
2021/07/15 07:27:14;;;;;;;4.47;3.20;;;;;;;;;;4999466;28;20269;-83
2021/07/15 07:29:39;;;;;;;3.67;3.17;;;;;;;;;;4995881;28;20022;-83
2021/07/15 07:32:05;;;;;;;3.80;3.50;;;;;;;;;;4999521;28;20145;-83
2021/07/15 07:34:30;;;;;;;3.80;3.50;;;;;;;;;;4982124;28;20582;-83
2021/07/15 07:36:56;;;;;;;4.57;4.05;;;;;;;;;;4985571;28;20013;-83
2021/07/15 07:39:22;;;;;;;4.40;4.00;;;;;;;;;;5004772;28;20032;-84
2021/07/15 07:41:49;;;;;;;4.10;3.80;;;;;;;;;;5004755;28;20507;-85
2021/07/15 07:44:15;;;;;;;4.25;3.85;;;;;;;;;;5004266;28;20015;-84
2021/07/15 07:46:40;;;;;;;3.72;3.42;;;;;;;;;;5017525;28;20028;-85
2021/07/15 07:49:06;;;;;;;3.75;3.00;;;;;;;;;;5033404;28;20071;-85
2021/07/15 07:51:33;;;;;;;4.07;3.03;;;;;;;;;;5001576;28;20030;-86
2021/07/15 07:53:58;;;;;;;4.00;3.38;;;;;;;;;;5001753;28;20281;-85
2021/07/15 07:56:24;;;;;;;3.42;3.13;;;;;;;;;;5004033;28;20037;-86
2021/07/15 07:58:49;;;;;;;5.40;2.60;;;;;;;;;;5006006;28;20029;-86
2021/07/15 08:01:17;;;;;;;3.55;2.50;;;;;;;;;;4997115;28;20269;-86
2021/07/15 08:03:42;;;;;;;2.45;2.20;;;;;;;;;;4994992;28;20042;-87
2021/07/15 08:06:10;;;;;;;2.63;2.42;;;;;;;;;;5000798;28;20068;-86
2021/07/15 08:08:38;;;;;;;2.60;2.40;;;;;;;;;;5012421;28;20041;-86
2021/07/15 08:11:03;;;;;;;3.30;2.33;;;;;;;;;;5013533;28;20052;-84
2021/07/15 08:13:28;;;;;;;2.17;1.95;;;;;;;;;;5006497;28;20034;-83
2021/07/15 08:15:53;;;;;;;4.47;1.90;;;;;;;;;;4993971;28;20051;-83
2021/07/15 08:18:19;;;;;;;5.40;1.73;;;;;;;;;;4994465;28;20022;-83
2021/07/15 08:20:44;;;;;;;1.85;1.60;;;;;;;;;;5009310;28;20351;-83
2021/07/15 08:23:09;;;;;;;2.95;1.60;;;;;;;;;;5003961;28;20037;-83
2021/07/15 08:25:37;;;;;;;2.20;1.50;;;;;;;;;;5007268;28;20026;-84
2021/07/15 08:28:02;;;;;;;2.20;1.35;;;;;;;;;;4997596;28;20033;-84
2021/07/15 08:30:27;;;;;;;2.20;2.00;;;;;;;;;;4998116;28;20347;-83
2021/07/15 08:32:53;;;;;;;1.67;1.57;;;;;;;;;;5008897;28;20025;-83
2021/07/15 08:35:18;;;;;;;1.88;1.63;;;;;;;;;;5000974;28;20261;-83
2021/07/15 08:37:43;;;;;;;4.30;1.83;;;;;;;;;;5013066;28;20025;-83
2021/07/15 08:40:09;;;;;;;3.50;1.83;;;;;;;;;;5009614;28;20014;-84
2021/07/15 08:42:36;;;;;;;2.42;2.20;;;;;;;;;;5013121;28;20037;-83
2021/07/15 08:45:03;;;;;;;3.28;2.28;;;;;;;;;;5017462;28;20032;-83
2021/07/15 08:47:29;;;;;;;3.45;1.92;;;;;;;;;;4997797;28;20034;-83
2021/07/15 08:49:56;;;;;;;2.28;1.90;;;;;;;;;;5011776;28;20440;-83
2021/07/15 08:52:22;;;;;;;2.78;1.75;;;;;;;;;;4986836;28;21204;-83
2021/07/15 08:54:56;;;;;;;2.90;1.98;;;;;;;;;;4983407;28;20022;-82
2021/07/15 08:57:21;;;;;;;3.65;1.75;;;;;;;;;;5006628;28;20018;-84
2021/07/15 08:59:47;;;;;;;1.73;1.63;;;;;;;;;;4980113;28;20439;-84
2021/07/15 09:02:17;;;;;;;1.80;1.60;;;;;;;;;;5002449;28;20324;-84
2021/07/15 09:04:42;;;;;;;2.05;1.55;;;;;;;;;;5004959;28;20494;-83
2021/07/15 09:07:12;;;;;;;3.17;1.40;;;;;;;;;;4999985;28;20096;-83
2021/07/15 09:09:38;;;;;;;3.70;1.30;;;;;;;;;;5012173;28;20026;-83
2021/07/15 09:12:05;;;;;;;2.00;1.45;;;;;;;;;;5003683;28;20605;-83
2021/07/15 09:14:42;;;;;;;1.98;1.52;;;;;;;;;;5005293;28;20014;-83
2021/07/15 09:17:10;;;;;;;1.75;1.38;;;;;;;;;;5005921;28;20072;-83
2021/07/15 09:19:38;;;;;;;2.97;1.10;;;;;;;;;;5011295;28;20029;-83
2021/07/15 09:22:11;;;;;;;2.63;1.25;;;;;;;;;;5004583;28;20031;-82
2021/07/15 09:24:40;;;;;;;2.67;0.98;;;;;;;;;;5000919;28;20022;-83
2021/07/15 09:27:10;;;;;;;1.13;1.00;;;;;;;;;;4996904;28;20109;-83
2021/07/15 09:29:38;;;;;;;2.60;1.20;;;;;;;;;;5005327;28;21129;-83
2021/07/15 09:32:04;;;;;;;2.35;1.10;;;;;;;;;;5008963;28;20343;-83
2021/07/15 09:34:31;;;;;;;1.73;0.82;;;;;;;;;;5006219;28;20018;-83
2021/07/15 09:36:56;;;;;;;2.60;1.00;;;;;;;;;;5016389;28;20018;-83
2021/07/15 09:39:25;;;;;;;1.15;1.00;;;;;;;;;;4999107;28;20053;-83
2021/07/15 09:42:05;;;;;;;1.67;0.90;;;;;;;;;;5001238;28;20025;-83
2021/07/15 09:44:31;;;;;;;2.67;1.00;;;;;;;;;;5004393;28;20022;-83
2021/07/15 09:46:58;;;;;;;0.93;0.80;;;;;;;;;;5003245;28;20025;-83
2021/07/15 09:49:32;;;;;;;1.98;0.80;;;;;;;;;;5008663;28;20045;-83
2021/07/15 09:51:59;;;;;;;1.15;0.82;;;;;;;;;;4990297;28;20018;-83
2021/07/15 09:54:24;;;;;;;2.00;0.75;;;;;;;;;;4998487;28;20137;-83
2021/07/15 09:56:49;;;;;;;1.27;0.80;;;;;;;;;;5007545;28;20112;-83
2021/07/15 09:59:17;;;;;;;0.75;0.75;;;;;;;;;;5015636;28;20010;-83
2021/07/15 10:01:46;;;;;;;1.60;0.77;;;;;;;;;;4996170;28;20030;-83
2021/07/15 10:04:11;;;;;;;1.65;0.85;;;;;;;;;;5000647;28;20081;-83
2021/07/15 10:06:51;;;;;;;1.03;0.70;;;;;;;;;;4995666;28;20023;-82
2021/07/15 10:09:20;;;;;;;3.30;1.00;;;;;;;;;;5002663;28;20266;-83
2021/07/15 10:11:45;;;;;;;1.70;0.70;;;;;;;;;;4995992;28;20467;-83
2021/07/15 10:14:14;;;;;;;2.20;0.60;;;;;;;;;;5002836;28;20048;-83
2021/07/15 10:16:41;;;;;;;0.50;0.50;;;;;;;;;;5015541;28;20018;-83
2021/07/15 10:19:08;;;;;;;1.58;0.60;;;;;;;;;;5000659;28;20351;-83
2021/07/15 10:21:34;;;;;;;2.83;0.70;;;;;;;;;;5008038;28;20022;-83
2021/07/15 10:24:14;;;;;;;1.17;0.80;;;;;;;;;;5008816;28;20040;-82
2021/07/15 10:26:46;;;;;;;0.93;0.68;;;;;;;;;;5018142;28;20021;-81
2021/07/15 10:29:13;;;;;;;1.33;0.70;;;;;;;;;;5016263;28;20025;-81
2021/07/15 10:31:39;;;;;;;0.70;0.70;;;;;;;;;;5004119;28;20053;-81
2021/07/15 10:34:04;;;;;;;2.72;0.60;;;;;;;;;;5017093;28;20105;-81
2021/07/15 10:36:29;;;;;;;0.75;0.50;;;;;;;;;;5006391;28;20470;-82
2021/07/15 10:38:55;;;;;;;2.13;0.60;;;;;;;;;;5015369;28;20080;-82
2021/07/15 10:41:22;;;;;;;0.68;0.47;;;;;;;;;;4997408;28;20069;-82
2021/07/15 10:43:50;;;;;;;0.77;0.70;;;;;;;;;;4998812;28;20454;-82
2021/07/15 10:46:21;;;;;;;0.73;0.60;;;;;;;;;;5014070;28;20030;-82
2021/07/15 10:48:47;;;;;;;1.10;0.70;;;;;;;;;;5014924;28;20021;-82
2021/07/15 10:51:12;;;;;;;1.67;0.70;;;;;;;;;;5014578;28;20033;-81
2021/07/15 10:53:40;;;;;;;0.73;0.70;;;;;;;;;;5011838;28;20034;-82
2021/07/15 10:56:05;;;;;;;0.50;0.50;;;;;;;;;;4995125;28;20057;-82
2021/07/15 10:58:43;;;;;;;0.70;0.70;;;;;;;;;;5000499;28;20042;-81
2021/07/15 11:01:09;;;;;;;1.52;0.80;;;;;;;;;;4994823;28;20022;-82
2021/07/15 11:03:35;;;;;;;1.20;0.63;;;;;;;;;;4995159;28;20053;-81
2021/07/15 11:06:03;;;;;;;2.30;0.90;;;;;;;;;;4977962;28;20028;-81
2021/07/15 11:08:46;;;;;;;0.80;0.60;;;;;;;;;;4996606;28;20495;-82
2021/07/15 11:11:16;;;;;;;1.23;0.63;;;;;;;;;;4999178;28;20026;-81
2021/07/15 11:13:42;;;;;;;1.25;0.70;;;;;;;;;;5013863;28;20018;-82
2021/07/15 11:16:08;;;;;;;1.85;0.60;;;;;;;;;;4996541;28;20014;-81
2021/07/15 11:18:55;;;;;;;0.80;0.50;;;;;;;;;;5014152;28;20044;-82
2021/07/15 11:21:27;;;;;;;0.77;0.55;;;;;;;;;;4996473;28;20394;-82
2021/07/15 11:23:52;;;;;;;4.95;0.80;;;;;;;;;;4995103;28;20110;-82
2021/07/15 11:26:47;;;;;;;2.60;0.77;;;;;;;;;;5012952;28;20101;-81
2021/07/15 11:29:13;;;;;;;0.82;0.70;;;;;;;;;;4978052;28;20046;-81
2021/07/15 11:31:44;;;;;;;0.93;0.60;;;;;;;;;;4998074;28;20024;-81
2021/07/15 11:34:33;;;;;;;0.63;0.63;;;;;;;;;;5002747;28;20020;-81
2021/07/15 11:37:17;;;;;;;1.20;0.80;;;;;;;;;;5014174;28;20022;-82
2021/07/15 11:39:44;;;;;;;1.35;0.80;;;;;;;;;;4977380;28;20018;-82
2021/07/15 11:42:22;;;;;;;0.60;0.60;;;;;;;;;;5004164;28;20026;-83
2021/07/15 11:45:11;;;;;;;0.77;0.55;;;;;;;;;;5005435;28;20030;-81
2021/07/15 11:47:45;;;;;;;1.13;0.43;;;;;;;;;;4996490;28;20038;-83
2021/07/15 11:50:29;;;;;;;1.45;0.60;;;;;;;;;;4994260;28;20041;-81
2021/07/15 11:53:12;;;;;;;0.85;0.70;;;;;;;;;;4976751;28;20146;-80
2021/07/15 11:55:38;;;;;;;1.02;0.80;;;;;;;;;;5006689;28;20344;-81
2021/07/15 11:58:08;;;;;;;0.50;0.40;;;;;;;;;;5000453;28;20020;-80
2021/07/15 12:00:35;;;;;;;1.95;0.50;;;;;;;;;;5007945;28;20030;-82
2021/07/15 12:03:01;;;;;;;2.08;0.80;;;;;;;;;;5009226;28;20097;-83
2021/07/15 12:05:30;;;;;;;0.85;0.50;;;;;;;;;;4996164;28;20579;-83
2021/07/15 12:08:07;;;;;;;0.57;0.52;;;;;;;;;;5001149;28;20018;-84
2021/07/15 12:10:40;;;;;;;1.95;0.60;;;;;;;;;;5002064;28;20061;-84
2021/07/15 12:13:06;;;;;;;0.90;0.70;;;;;;;;;;5001612;28;20014;-84
2021/07/15 12:15:32;;;;;;;0.93;0.65;;;;;;;;;;5002136;28;20080;-84
2021/07/15 12:17:58;;;;;;;1.38;0.60;;;;;;;;;;5002421;28;20029;-83
2021/07/15 12:20:37;;;;;;;0.50;0.50;;;;;;;;;;4985349;28;20050;-83
2021/07/15 12:23:02;;;;;;;0.68;0.60;;;;;;;;;;5005789;28;20029;-84
2021/07/15 12:25:29;;;;;;;0.93;0.52;;;;;;;;;;5003048;28;20021;-84
2021/07/15 12:27:56;;;;;;;1.75;0.70;;;;;;;;;;5002801;28;20113;-83
2021/07/15 12:30:22;;;;;;;0.60;0.55;;;;;;;;;;5006288;28;20050;-84
2021/07/15 12:32:55;;;;;;;0.63;0.60;;;;;;;;;;5002083;28;20075;-83
2021/07/15 12:35:21;;;;;;;1.67;0.80;;;;;;;;;;4985469;28;20021;-83
2021/07/15 12:37:46;;;;;;;2.60;0.70;;;;;;;;;;4999253;28;20025;-83
2021/07/15 12:40:12;;;;;;;0.60;0.60;;;;;;;;;;4998569;28;20512;-83
2021/07/15 12:42:37;;;;;;;0.60;0.50;;;;;;;;;;4999790;28;20258;-83
2021/07/15 12:45:14;;;;;;;1.85;0.70;;;;;;;;;;4998725;28;20406;-83
2021/07/15 12:50:40;;;;;;;1.52;0.60;;;;;;;;;;4996054;28;20058;-83
2021/07/15 12:53:15;;;;;;;0.70;0.50;;;;;;;;;;4994166;28;20086;-83
2021/07/15 12:55:41;;;;;;;2.78;0.60;;;;;;;;;;4997980;28;20006;-83
2021/07/15 12:58:07;;;;;;;1.38;0.82;;;;;;;;;;4995217;28;20032;-83
2021/07/15 13:00:33;;;;;;;0.65;0.65;;;;;;;;;;4983388;28;20366;-83
2021/07/15 13:02:59;;;;;;;0.40;0.40;;;;;;;;;;5003927;28;21241;-83
2021/07/15 13:05:24;;;;;;;1.10;0.80;;;;;;;;;;5002698;28;20022;-83
2021/07/15 13:07:50;;;;;;;3.55;0.60;;;;;;;;;;5008931;28;20105;-83
2021/07/15 13:10:29;;;;;;;1.65;0.70;;;;;;;;;;5006676;28;20030;-83
2021/07/15 13:15:41;;;;;;;2.28;0.77;;;;;;;;;;5003529;28;20021;-82
2021/07/15 13:18:10;;;;;;;0.90;0.70;;;;;;;;;;5008324;28;20014;-82
2021/07/15 13:20:43;;;;;;;1.42;0.68;;;;;;;;;;5009425;28;20092;-83
2021/07/15 13:23:08;;;;;;;1.33;0.82;;;;;;;;;;5001299;28;20033;-75
2021/07/15 13:25:33;;;;;;;1.10;0.70;;;;;;;;;;5005228;28;20355;-82
2021/07/15 13:28:09;;;;;;;6.43;2.03;;;;;;;;;;5010099;28;20268;-82
2021/07/15 13:30:37;;;;;;;2.53;1.63;;;;;;;;;;5006640;28;20327;-82
2021/07/15 13:33:11;;;;;;;21.60;7.35;;;;;;;;;;4984169;28;20458;-82
2021/07/15 13:35:37;;;;;;;5.18;2.70;;;;;;;;;;5009269;28;20124;-82
2021/07/15 13:38:02;;;;;;;1.00;0.90;;;;;;;;;;4993000;28;20121;-81
2021/07/15 13:40:28;;;;;;;2.83;0.90;;;;;;;;;;5007019;28;20033;-81
2021/07/15 13:43:03;;;;;;;1.77;0.95;;;;;;;;;;5015755;28;20017;-81
2021/07/15 13:45:28;;;;;;;0.80;0.80;;;;;;;;;;5005397;28;20348;-81
2021/07/15 13:47:54;;;;;;;1.27;0.70;;;;;;;;;;4993632;28;20029;-82
2021/07/15 13:50:19;;;;;;;1.08;0.95;;;;;;;;;;4999153;28;20023;-81
2021/07/15 13:52:44;;;;;;;2.90;0.90;;;;;;;;;;5004108;28;20045;-81
2021/07/15 13:55:13;;;;;;;1.20;0.93;;;;;;;;;;5004445;28;20253;-81
2021/07/15 13:57:46;;;;;;;1.05;0.82;;;;;;;;;;5014458;28;20065;-82
2021/07/15 14:00:13;;;;;;;1.20;1.10;;;;;;;;;;5007507;28;20316;-82
2021/07/15 14:02:43;;;;;;;0.82;0.82;;;;;;;;;;5007175;28;20458;-83
2021/07/15 14:05:10;;;;;;;1.60;1.20;;;;;;;;;;5000836;28;20030;-83
2021/07/15 14:07:36;;;;;;;1.95;1.35;;;;;;;;;;5009739;28;20029;-82
2021/07/15 14:10:08;;;;;;;22.42;5.80;;;;;;;;;;5009289;28;20033;-78
2021/07/15 14:12:34;;;;;;;4.95;1.98;;;;;;;;;;5001357;28;20029;-80
2021/07/15 14:14:59;;;;;;;1.83;1.50;;;;;;;;;;5010778;28;20022;-80
2021/07/15 14:17:25;;;;;;;3.03;1.83;;;;;;;;;;4996764;28;20292;-80
2021/07/15 14:19:51;;;;;;;2.20;1.70;;;;;;;;;;4995912;28;20030;-80
2021/07/15 14:22:19;;;;;;;1.88;1.65;;;;;;;;;;4995551;28;20409;-80
2021/07/15 14:24:47;;;;;;;2.38;1.60;;;;;;;;;;5003194;28;20033;-80
2021/07/15 14:27:16;;;;;;;2.83;1.90;;;;;;;;;;5001450;28;20448;-80
2021/07/15 14:29:42;;;;;;;3.60;1.80;;;;;;;;;;4995130;28;20042;-80
2021/07/15 14:32:07;;;;;;;1.73;1.35;;;;;;;;;;4984780;28;20072;-80
2021/07/15 14:34:39;;;;;;;1.83;1.70;;;;;;;;;;5000447;28;20029;-80
2021/07/15 14:37:07;;;;;;;2.75;1.80;;;;;;;;;;5009043;28;20276;-80
2021/07/15 14:39:33;;;;;;;2.80;1.60;;;;;;;;;;5014240;28;20022;-80
2021/07/15 14:42:05;;;;;;;2.65;1.90;;;;;;;;;;5014383;28;20072;-80
2021/07/15 14:44:30;;;;;;;2.40;1.50;;;;;;;;;;5005088;28;20030;-80
2021/07/15 14:46:56;;;;;;;2.35;1.60;;;;;;;;;;4985513;28;20128;-80
2021/07/15 14:49:26;;;;;;;1.75;1.60;;;;;;;;;;5011038;28;20084;-80
2021/07/15 14:51:54;;;;;;;2.67;1.70;;;;;;;;;;5013844;28;20022;-81
2021/07/15 14:54:19;;;;;;;2.40;1.60;;;;;;;;;;5002772;28;20057;-80